sensor_id;sensor_type;location;lat;lon;timestamp;pressure;altitude;pressure_sealevel;temperature;humidity
21129;BME280;10722;51.910;8.352;2023-03-14T00:00:33;98236.53;;;11.02;89.67
21129;BME280;10722;51.910;8.352;2023-03-14T00:03:20;98249.56;;;10.97;89.53
21129;BME280;10722;51.910;8.352;2023-03-14T00:06:06;98265.28;;;10.90;90.16
21129;BME280;10722;51.910;8.352;2023-03-14T00:08:51;98286.81;;;10.90;90.36
21129;BME280;10722;51.910;8.352;2023-03-14T00:11:36;98294.66;;;10.87;90.62
21129;BME280;10722;51.910;8.352;2023-03-14T00:14:22;98287.75;;;10.88;90.65
21129;BME280;10722;51.910;8.352;2023-03-14T00:17:08;98291.25;;;10.85;90.70
21129;BME280;10722;51.910;8.352;2023-03-14T00:19:53;98264.69;;;10.79;90.99
21129;BME280;10722;51.910;8.352;2023-03-14T00:22:39;98274.13;;;10.80;90.84
21129;BME280;10722;51.910;8.352;2023-03-14T00:25:25;98286.22;;;10.77;90.80
21129;BME280;10722;51.910;8.352;2023-03-14T00:28:10;98292.38;;;10.72;91.09
21129;BME280;10722;51.910;8.352;2023-03-14T00:30:55;98292.53;;;10.64;91.40
21129;BME280;10722;51.910;8.352;2023-03-14T00:33:41;98302.97;;;10.61;91.74
21129;BME280;10722;51.910;8.352;2023-03-14T00:36:26;98289.09;;;10.65;91.66
21129;BME280;10722;51.910;8.352;2023-03-14T00:39:12;98280.44;;;10.68;91.81
21129;BME280;10722;51.910;8.352;2023-03-14T00:41:58;98276.25;;;10.61;92.00
21129;BME280;10722;51.910;8.352;2023-03-14T00:44:43;98265.00;;;10.63;92.06
21129;BME280;10722;51.910;8.352;2023-03-14T00:47:28;98263.25;;;10.64;91.79
21129;BME280;10722;51.910;8.352;2023-03-14T00:50:14;98256.03;;;10.78;91.44
21129;BME280;10722;51.910;8.352;2023-03-14T00:52:59;98261.13;;;10.83;91.32
21129;BME280;10722;51.910;8.352;2023-03-14T00:55:44;98254.97;;;10.88;90.71
21129;BME280;10722;51.910;8.352;2023-03-14T00:58:30;98254.03;;;10.91;90.32
21129;BME280;10722;51.910;8.352;2023-03-14T01:01:17;98267.75;;;10.94;90.08
21129;BME280;10722;51.910;8.352;2023-03-14T01:04:03;98256.41;;;11.00;89.89
21129;BME280;10722;51.910;8.352;2023-03-14T01:06:48;98252.16;;;10.97;89.32
21129;BME280;10722;51.910;8.352;2023-03-14T01:09:34;98252.16;;;10.97;89.45
21129;BME280;10722;51.910;8.352;2023-03-14T01:12:19;98240.00;;;11.01;89.00
21129;BME280;10722;51.910;8.352;2023-03-14T01:15:05;98237.34;;;11.04;88.74
21129;BME280;10722;51.910;8.352;2023-03-14T01:17:51;98214.84;;;11.06;88.63
21129;BME280;10722;51.910;8.352;2023-03-14T01:20:37;98195.88;;;11.07;88.13
21129;BME280;10722;51.910;8.352;2023-03-14T01:23:22;98212.19;;;11.09;88.12
21129;BME280;10722;51.910;8.352;2023-03-14T01:26:16;98196.75;;;11.06;87.69
21129;BME280;10722;51.910;8.352;2023-03-14T01:29:02;98181.28;;;11.03;87.72
21129;BME280;10722;51.910;8.352;2023-03-14T01:31:48;98169.19;;;11.05;87.31
21129;BME280;10722;51.910;8.352;2023-03-14T01:34:33;98161.44;;;11.04;87.55
21129;BME280;10722;51.910;8.352;2023-03-14T01:37:19;98191.72;;;11.00;87.71
21129;BME280;10722;51.910;8.352;2023-03-14T01:40:04;98181.59;;;10.91;87.74
21129;BME280;10722;51.910;8.352;2023-03-14T01:42:57;98184.81;;;11.00;87.61
21129;BME280;10722;51.910;8.352;2023-03-14T01:49:07;98164.81;;;11.07;87.12
21129;BME280;10722;51.910;8.352;2023-03-14T01:52:06;98163.91;;;11.10;86.93
21129;BME280;10722;51.910;8.352;2023-03-14T01:54:55;98173.69;;;10.97;86.96
21129;BME280;10722;51.910;8.352;2023-03-14T01:57:49;98159.72;;;11.04;86.99
21129;BME280;10722;51.910;8.352;2023-03-14T02:00:38;98163.34;;;10.97;87.12
21129;BME280;10722;51.910;8.352;2023-03-14T02:03:24;98162.25;;;11.07;87.13
21129;BME280;10722;51.910;8.352;2023-03-14T02:06:11;98145.66;;;11.14;86.51
21129;BME280;10722;51.910;8.352;2023-03-14T02:08:57;98145.06;;;11.05;86.96
21129;BME280;10722;51.910;8.352;2023-03-14T02:11:44;98154.25;;;11.15;86.51
21129;BME280;10722;51.910;8.352;2023-03-14T02:14:32;98165.56;;;11.12;86.89
21129;BME280;10722;51.910;8.352;2023-03-14T02:17:25;98252.22;;;10.55;90.72
21129;BME280;10722;51.910;8.352;2023-03-14T02:20:47;98310.28;;;9.46;96.66
21129;BME280;10722;51.910;8.352;2023-03-14T02:29:56;98335.59;;;8.62;100.00
21129;BME280;10722;51.910;8.352;2023-03-14T02:32:46;98334.72;;;8.63;100.00
21129;BME280;10722;51.910;8.352;2023-03-14T02:35:36;98330.47;;;8.59;100.00
21129;BME280;10722;51.910;8.352;2023-03-14T02:41:37;98316.00;;;8.50;100.00
21129;BME280;10722;51.910;8.352;2023-03-14T02:44:22;98314.22;;;8.52;100.00
21129;BME280;10722;51.910;8.352;2023-03-14T02:47:08;98316.00;;;8.49;100.00
21129;BME280;10722;51.910;8.352;2023-03-14T02:49:59;98321.16;;;8.47;100.00
21129;BME280;10722;51.910;8.352;2023-03-14T02:52:46;98320.28;;;8.48;100.00
21129;BME280;10722;51.910;8.352;2023-03-14T02:55:32;98306.63;;;8.43;100.00
21129;BME280;10722;51.910;8.352;2023-03-14T02:58:18;98304.94;;;8.41;100.00
21129;BME280;10722;51.910;8.352;2023-03-14T03:01:04;98299.78;;;8.36;100.00
21129;BME280;10722;51.910;8.352;2023-03-14T03:03:49;98306.63;;;8.42;100.00
21129;BME280;10722;51.910;8.352;2023-03-14T03:06:35;98309.19;;;8.42;100.00
21129;BME280;10722;51.910;8.352;2023-03-14T03:09:19;98310.03;;;8.45;100.00
21129;BME280;10722;51.910;8.352;2023-03-14T03:12:05;98312.56;;;8.47;100.00
21129;BME280;10722;51.910;8.352;2023-03-14T03:14:50;98304.88;;;8.45;100.00
21129;BME280;10722;51.910;8.352;2023-03-14T03:17:35;98299.78;;;8.41;100.00
21129;BME280;10722;51.910;8.352;2023-03-14T03:20:21;98285.16;;;8.43;100.00
21129;BME280;10722;51.910;8.352;2023-03-14T03:23:06;98288.69;;;8.32;100.00
21129;BME280;10722;51.910;8.352;2023-03-14T03:25:52;98279.25;;;8.30;100.00
21129;BME280;10722;51.910;8.352;2023-03-14T03:28:37;98281.06;;;8.23;100.00
21129;BME280;10722;51.910;8.352;2023-03-14T03:31:22;98267.25;;;8.29;100.00
21129;BME280;10722;51.910;8.352;2023-03-14T03:34:08;98270.72;;;8.28;100.00
21129;BME280;10722;51.910;8.352;2023-03-14T03:36:56;98272.41;;;8.29;100.00
21129;BME280;10722;51.910;8.352;2023-03-14T03:39:42;98268.16;;;8.26;100.00
21129;BME280;10722;51.910;8.352;2023-03-14T03:42:27;98273.25;;;8.29;100.00
21129;BME280;10722;51.910;8.352;2023-03-14T03:45:12;98267.19;;;8.35;100.00
21129;BME280;10722;51.910;8.352;2023-03-14T03:47:58;98276.59;;;8.38;100.00
21129;BME280;10722;51.910;8.352;2023-03-14T03:50:46;98273.13;;;8.42;100.00
21129;BME280;10722;51.910;8.352;2023-03-14T03:53:31;98272.06;;;8.58;100.00
21129;BME280;10722;51.910;8.352;2023-03-14T03:56:18;98268.59;;;8.61;100.00
21129;BME280;10722;51.910;8.352;2023-03-14T03:59:03;98267.72;;;8.62;100.00
21129;BME280;10722;51.910;8.352;2023-03-14T04:01:48;98270.41;;;8.52;100.00
21129;BME280;10722;51.910;8.352;2023-03-14T04:04:34;98267.78;;;8.56;100.00
21129;BME280;10722;51.910;8.352;2023-03-14T04:07:19;98275.56;;;8.54;100.00
21129;BME280;10722;51.910;8.352;2023-03-14T04:10:05;98283.25;;;8.56;100.00
21129;BME280;10722;51.910;8.352;2023-03-14T04:12:50;98292.59;;;8.64;100.00
21129;BME280;10722;51.910;8.352;2023-03-14T04:15:35;98273.81;;;8.55;100.00
21129;BME280;10722;51.910;8.352;2023-03-14T04:18:21;98286.75;;;8.50;100.00
21129;BME280;10722;51.910;8.352;2023-03-14T04:21:07;98281.69;;;8.45;100.00
21129;BME280;10722;51.910;8.352;2023-03-14T04:23:52;98275.69;;;8.42;100.00
21129;BME280;10722;51.910;8.352;2023-03-14T04:26:37;98272.28;;;8.41;100.00
21129;BME280;10722;51.910;8.352;2023-03-14T04:29:23;98264.59;;;8.37;100.00
21129;BME280;10722;51.910;8.352;2023-03-14T04:32:08;98256.88;;;8.35;100.00
21129;BME280;10722;51.910;8.352;2023-03-14T04:34:54;98243.03;;;8.45;100.00
21129;BME280;10722;51.910;8.352;2023-03-14T04:37:39;98245.66;;;8.41;100.00
21129;BME280;10722;51.910;8.352;2023-03-14T04:40:25;98243.97;;;8.37;100.00
21129;BME280;10722;51.910;8.352;2023-03-14T04:43:11;98241.31;;;8.46;100.00
21129;BME280;10722;51.910;8.352;2023-03-14T04:45:57;98243.94;;;8.38;100.00
21129;BME280;10722;51.910;8.352;2023-03-14T04:48:42;98234.59;;;8.31;100.00
21129;BME280;10722;51.910;8.352;2023-03-14T04:51:28;98233.72;;;8.34;100.00
21129;BME280;10722;51.910;8.352;2023-03-14T04:54:13;98224.28;;;8.32;100.00
21129;BME280;10722;51.910;8.352;2023-03-14T04:56:58;98224.31;;;8.31;100.00
21129;BME280;10722;51.910;8.352;2023-03-14T04:59:44;98219.06;;;8.37;100.00
21129;BME280;10722;51.910;8.352;2023-03-14T05:02:29;98212.22;;;8.39;100.00
21129;BME280;10722;51.910;8.352;2023-03-14T05:05:14;98214.78;;;8.39;100.00
21129;BME280;10722;51.910;8.352;2023-03-14T05:08:00;98214.75;;;8.42;100.00
21129;BME280;10722;51.910;8.352;2023-03-14T05:10:52;98221.59;;;8.43;100.00
21129;BME280;10722;51.910;8.352;2023-03-14T05:13:37;98212.97;;;8.46;100.00
21129;BME280;10722;51.910;8.352;2023-03-14T05:16:24;98215.50;;;8.47;100.00
21129;BME280;10722;51.910;8.352;2023-03-14T05:19:10;98215.44;;;8.52;100.00
21129;BME280;10722;51.910;8.352;2023-03-14T05:21:55;98220.50;;;8.60;100.00
21129;BME280;10722;51.910;8.352;2023-03-14T05:24:40;98196.50;;;8.56;100.00
21129;BME280;10722;51.910;8.352;2023-03-14T05:27:25;98198.19;;;8.57;100.00
21129;BME280;10722;51.910;8.352;2023-03-14T05:30:11;98202.56;;;8.53;100.00
21129;BME280;10722;51.910;8.352;2023-03-14T05:32:57;98188.72;;;8.59;100.00
21129;BME280;10722;51.910;8.352;2023-03-14T05:35:42;98177.53;;;8.62;100.00
21129;BME280;10722;51.910;8.352;2023-03-14T05:38:28;98174.03;;;8.64;100.00
21129;BME280;10722;51.910;8.352;2023-03-14T05:41:13;98181.88;;;8.57;100.00
21129;BME280;10722;51.910;8.352;2023-03-14T05:43:58;98195.50;;;8.65;100.00
21129;BME280;10722;51.910;8.352;2023-03-14T05:46:44;98186.06;;;8.64;100.00
21129;BME280;10722;51.910;8.352;2023-03-14T05:49:29;98185.28;;;8.59;100.00
21129;BME280;10722;51.910;8.352;2023-03-14T05:52:15;98189.63;;;8.55;100.00
21129;BME280;10722;51.910;8.352;2023-03-14T05:55:00;98182.06;;;8.44;100.00
21129;BME280;10722;51.910;8.352;2023-03-14T05:57:45;98192.59;;;8.26;100.00
21129;BME280;10722;51.910;8.352;2023-03-14T06:00:30;98184.97;;;8.20;100.00
21129;BME280;10722;51.910;8.352;2023-03-14T06:03:16;98197.84;;;8.18;100.00
21129;BME280;10722;51.910;8.352;2023-03-14T06:06:02;98199.56;;;8.18;100.00
21129;BME280;10722;51.910;8.352;2023-03-14T06:08:50;98189.31;;;8.13;100.00
21129;BME280;10722;51.910;8.352;2023-03-14T06:11:35;98198.81;;;8.09;100.00
21129;BME280;10722;51.910;8.352;2023-03-14T06:14:21;98214.41;;;8.00;100.00
21129;BME280;10722;51.910;8.352;2023-03-14T06:17:06;98210.97;;;8.00;100.00
21129;BME280;10722;51.910;8.352;2023-03-14T06:19:52;98212.66;;;7.99;100.00
21129;BME280;10722;51.910;8.352;2023-03-14T06:22:37;98216.25;;;7.89;100.00
21129;BME280;10722;51.910;8.352;2023-03-14T06:25:22;98226.63;;;7.81;100.00
21129;BME280;10722;51.910;8.352;2023-03-14T06:28:07;98223.28;;;7.73;100.00
21129;BME280;10722;51.910;8.352;2023-03-14T06:30:53;98225.91;;;7.69;100.00
21129;BME280;10722;51.910;8.352;2023-03-14T06:33:39;98216.50;;;7.66;100.00
21129;BME280;10722;51.910;8.352;2023-03-14T06:36:24;98235.38;;;7.67;100.00
21129;BME280;10722;51.910;8.352;2023-03-14T06:39:09;98218.13;;;7.75;100.00
21129;BME280;10722;51.910;8.352;2023-03-14T06:41:55;98215.56;;;7.75;100.00
21129;BME280;10722;51.910;8.352;2023-03-14T06:44:40;98219.81;;;7.77;100.00
21129;BME280;10722;51.910;8.352;2023-03-14T06:47:26;98218.06;;;7.81;100.00
21129;BME280;10722;51.910;8.352;2023-03-14T06:50:11;98230.03;;;7.82;100.00
21129;BME280;10722;51.910;8.352;2023-03-14T06:52:56;98224.81;;;7.88;100.00
21129;BME280;10722;51.910;8.352;2023-03-14T06:55:42;98229.16;;;7.86;100.00
21129;BME280;10722;51.910;8.352;2023-03-14T06:58:27;98229.22;;;7.78;100.00
21129;BME280;10722;51.910;8.352;2023-03-14T07:01:23;98227.56;;;7.73;100.00
21129;BME280;10722;51.910;8.352;2023-03-14T07:04:10;98228.53;;;7.62;100.00
21129;BME280;10722;51.910;8.352;2023-03-14T07:06:55;98222.53;;;7.63;100.00
21129;BME280;10722;51.910;8.352;2023-03-14T07:09:41;98231.94;;;7.64;100.00
21129;BME280;10722;51.910;8.352;2023-03-14T07:12:26;98228.53;;;7.62;100.00
21129;BME280;10722;51.910;8.352;2023-03-14T07:15:12;98231.09;;;7.64;100.00
21129;BME280;10722;51.910;8.352;2023-03-14T07:18:03;98219.09;;;7.66;100.00
21129;BME280;10722;51.910;8.352;2023-03-14T07:20:48;98224.16;;;7.72;100.00
21129;BME280;10722;51.910;8.352;2023-03-14T07:23:35;98231.81;;;7.78;100.00
21129;BME280;10722;51.910;8.352;2023-03-14T07:26:21;98235.13;;;7.88;100.00
21129;BME280;10722;51.910;8.352;2023-03-14T07:29:07;98235.06;;;7.94;100.00
21129;BME280;10722;51.910;8.352;2023-03-14T07:31:52;98233.28;;;7.99;100.00
21129;BME280;10722;51.910;8.352;2023-03-14T07:34:43;98235.84;;;8.01;100.00
21129;BME280;10722;51.910;8.352;2023-03-14T07:37:41;98245.16;;;8.09;100.00
21129;BME280;10722;51.910;8.352;2023-03-14T07:40:26;98242.59;;;8.09;100.00
21129;BME280;10722;51.910;8.352;2023-03-14T07:43:12;98234.75;;;8.19;100.00
21129;BME280;10722;51.910;8.352;2023-03-14T07:45:57;98234.78;;;8.17;100.00
21129;BME280;10722;51.910;8.352;2023-03-14T07:48:44;98243.28;;;8.24;100.00
21129;BME280;10722;51.910;8.352;2023-03-14T07:51:29;98248.38;;;8.27;100.00
21129;BME280;10722;51.910;8.352;2023-03-14T07:54:14;98245.72;;;8.33;100.00
21129;BME280;10722;51.910;8.352;2023-03-14T07:57:00;98243.16;;;8.33;100.00
21129;BME280;10722;51.910;8.352;2023-03-14T07:59:45;98246.56;;;8.37;100.00
21129;BME280;10722;51.910;8.352;2023-03-14T08:02:30;98242.25;;;8.39;100.00
21129;BME280;10722;51.910;8.352;2023-03-14T08:05:15;98245.56;;;8.48;100.00
21129;BME280;10722;51.910;8.352;2023-03-14T08:08:00;98238.59;;;8.57;100.00
21129;BME280;10722;51.910;8.352;2023-03-14T08:10:46;98238.41;;;8.69;100.00
21129;BME280;10722;51.910;8.352;2023-03-14T08:13:31;98234.84;;;8.78;100.00
21129;BME280;10722;51.910;8.352;2023-03-14T08:16:16;98233.88;;;8.83;100.00
21129;BME280;10722;51.910;8.352;2023-03-14T08:19:02;98227.69;;;8.95;100.00
21129;BME280;10722;51.910;8.352;2023-03-14T08:21:47;98235.34;;;9.01;100.00
21129;BME280;10722;51.910;8.352;2023-03-14T08:24:32;98243.84;;;9.06;100.00
21129;BME280;10722;51.910;8.352;2023-03-14T08:27:17;98226.56;;;9.13;100.00
21129;BME280;10722;51.910;8.352;2023-03-14T08:30:07;98229.06;;;9.16;100.00
21129;BME280;10722;51.910;8.352;2023-03-14T08:33:09;98232.44;;;9.19;100.00
21129;BME280;10722;51.910;8.352;2023-03-14T08:35:57;98229.91;;;9.18;100.00
21129;BME280;10722;51.910;8.352;2023-03-14T08:38:42;98214.50;;;9.12;100.00
21129;BME280;10722;51.910;8.352;2023-03-14T08:41:27;98226.56;;;9.13;100.00
21129;BME280;10722;51.910;8.352;2023-03-14T08:44:12;98222.88;;;9.26;100.00
21129;BME280;10722;51.910;8.352;2023-03-14T08:46:58;98227.91;;;9.35;100.00
21129;BME280;10722;51.910;8.352;2023-03-14T08:49:43;98220.16;;;9.34;100.00
21129;BME280;10722;51.910;8.352;2023-03-14T08:52:28;98216.75;;;9.32;100.00
21129;BME280;10722;51.910;8.352;2023-03-14T08:55:14;98211.38;;;9.44;100.00
21129;BME280;10722;51.910;8.352;2023-03-14T08:57:59;98223.41;;;9.47;100.00
21129;BME280;10722;51.910;8.352;2023-03-14T09:00:45;98227.53;;;9.54;100.00
21129;BME280;10722;51.910;8.352;2023-03-14T09:03:30;98218.81;;;9.61;100.00
21129;BME280;10722;51.910;8.352;2023-03-14T09:06:25;98220.34;;;9.71;100.00
21129;BME280;10722;51.910;8.352;2023-03-14T09:09:13;98202.13;;;9.79;100.00
21129;BME280;10722;51.910;8.352;2023-03-14T09:11:59;98196.75;;;9.88;100.00
21129;BME280;10722;51.910;8.352;2023-03-14T09:14:44;98194.03;;;9.96;100.00
21129;BME280;10722;51.910;8.352;2023-03-14T09:17:29;98191.31;;;10.02;100.00
21129;BME280;10722;51.910;8.352;2023-03-14T09:20:30;98198.28;;;9.98;100.00
21129;BME280;10722;51.910;8.352;2023-03-14T09:23:16;98188.75;;;10.02;100.00
21129;BME280;10722;51.910;8.352;2023-03-14T09:26:02;98194.66;;;10.07;100.00
21129;BME280;10722;51.910;8.352;2023-03-14T09:28:51;98181.09;;;9.97;100.00
21129;BME280;10722;51.910;8.352;2023-03-14T09:31:37;98201.06;;;9.89;100.00
21129;BME280;10722;51.910;8.352;2023-03-14T09:34:22;98212.56;;;9.74;100.00
21129;BME280;10722;51.910;8.352;2023-03-14T09:37:07;98215.34;;;9.62;100.00
21129;BME280;10722;51.910;8.352;2023-03-14T09:39:53;98215.28;;;9.67;100.00
21129;BME280;10722;51.910;8.352;2023-03-14T09:42:38;98224.53;;;9.77;100.00
21129;BME280;10722;51.910;8.352;2023-03-14T09:45:35;98239.16;;;9.78;100.00
21129;BME280;10722;51.910;8.352;2023-03-14T09:48:26;98234.78;;;9.81;100.00
21129;BME280;10722;51.910;8.352;2023-03-14T09:51:15;98246.72;;;9.88;100.00
21129;BME280;10722;51.910;8.352;2023-03-14T09:54:01;98231.22;;;9.88;100.00
21129;BME280;10722;51.910;8.352;2023-03-14T09:56:46;98234.66;;;9.87;100.00
21129;BME280;10722;51.910;8.352;2023-03-14T09:59:34;98242.47;;;9.84;100.00
21129;BME280;10722;51.910;8.352;2023-03-14T10:02:22;98256.44;;;9.74;100.00
21129;BME280;10722;51.910;8.352;2023-03-14T10:05:15;98253.25;;;9.60;100.00
21129;BME280;10722;51.910;8.352;2023-03-14T10:08:01;98265.50;;;9.49;100.00
21129;BME280;10722;51.910;8.352;2023-03-14T10:10:47;98260.31;;;9.49;100.00
21129;BME280;10722;51.910;8.352;2023-03-14T10:13:32;98270.66;;;9.49;100.00
21129;BME280;10722;51.910;8.352;2023-03-14T10:16:28;98278.31;;;9.53;100.00
21129;BME280;10722;51.910;8.352;2023-03-14T10:19:15;98275.63;;;9.61;100.00
21129;BME280;10722;51.910;8.352;2023-03-14T10:22:02;98279.06;;;9.60;100.00
21129;BME280;10722;51.910;8.352;2023-03-14T10:24:55;98271.97;;;9.71;100.00
21129;BME280;10722;51.910;8.352;2023-03-14T10:27:41;98282.31;;;9.71;100.00
21129;BME280;10722;51.910;8.352;2023-03-14T10:36:06;98342.69;;;9.08;100.00
21129;BME280;10722;51.910;8.352;2023-03-14T10:45:21;98375.72;;;8.01;100.00
21129;BME280;10722;51.910;8.352;2023-03-14T10:48:33;98386.25;;;7.77;100.00
21129;BME280;10722;51.910;8.352;2023-03-14T10:51:28;98399.97;;;7.79;100.00
21129;BME280;10722;51.910;8.352;2023-03-14T10:54:20;98401.72;;;7.75;100.00
21129;BME280;10722;51.910;8.352;2023-03-14T10:57:05;98415.66;;;7.47;100.00
21129;BME280;10722;51.910;8.352;2023-03-14T10:59:53;98428.44;;;7.60;100.00
21129;BME280;10722;51.910;8.352;2023-03-14T11:03:10;98444.66;;;7.67;100.00
21129;BME280;10722;51.910;8.352;2023-03-14T11:06:03;98470.53;;;7.50;100.00
21129;BME280;10722;51.910;8.352;2023-03-14T11:09:02;98484.19;;;7.58;100.00
21129;BME280;10722;51.910;8.352;2023-03-14T11:11:50;98504.00;;;7.44;100.00
21129;BME280;10722;51.910;8.352;2023-03-14T11:14:40;98517.78;;;7.32;100.00
21129;BME280;10722;51.910;8.352;2023-03-14T11:17:30;98536.66;;;7.30;100.00
21129;BME280;10722;51.910;8.352;2023-03-14T11:27:04;98588.22;;;6.50;100.00
21129;BME280;10722;51.910;8.352;2023-03-14T11:30:01;98612.22;;;6.44;100.00
21129;BME280;10722;51.910;8.352;2023-03-14T11:33:04;98613.91;;;6.30;100.00
21129;BME280;10722;51.910;8.352;2023-03-14T11:36:06;98638.75;;;6.17;100.00
21129;BME280;10722;51.910;8.352;2023-03-14T11:42:14;98675.38;;;5.85;100.00
21129;BME280;10722;51.910;8.352;2023-03-14T11:45:00;98671.06;;;5.66;100.00
21129;BME280;10722;51.910;8.352;2023-03-14T11:51:27;98717.97;;;5.45;100.00
21129;BME280;10722;51.910;8.352;2023-03-14T11:54:18;98735.84;;;5.34;100.00
21129;BME280;10722;51.910;8.352;2023-03-14T11:57:14;98743.47;;;5.22;100.00
21129;BME280;10722;51.910;8.352;2023-03-14T12:00:19;98744.34;;;5.27;100.00
21129;BME280;10722;51.910;8.352;2023-03-14T12:03:22;98763.19;;;5.31;100.00
21129;BME280;10722;51.910;8.352;2023-03-14T12:09:12;98777.03;;;5.59;100.00
21129;BME280;10722;51.910;8.352;2023-03-14T12:12:00;98779.72;;;5.79;100.00
21129;BME280;10722;51.910;8.352;2023-03-14T12:14:55;98780.53;;;5.70;100.00
21129;BME280;10722;51.910;8.352;2023-03-14T12:17:57;98777.94;;;5.66;100.00
21129;BME280;10722;51.910;8.352;2023-03-14T12:20:57;98779.69;;;5.70;100.00
21129;BME280;10722;51.910;8.352;2023-03-14T12:23:48;98792.50;;;5.71;100.00
21129;BME280;10722;51.910;8.352;2023-03-14T12:27:00;98767.75;;;5.79;99.93
21129;BME280;10722;51.910;8.352;2023-03-14T12:30:00;98769.59;;;5.99;99.05
21129;BME280;10722;51.910;8.352;2023-03-14T12:36:01;98768.81;;;6.18;96.90
21129;BME280;10722;51.910;8.352;2023-03-14T12:38:54;98760.25;;;6.18;96.06
21129;BME280;10722;51.910;8.352;2023-03-14T12:41:51;98770.56;;;6.25;95.88
21129;BME280;10722;51.910;8.352;2023-03-14T12:44:42;98772.34;;;6.45;95.90
21129;BME280;10722;51.910;8.352;2023-03-14T12:50:28;98768.94;;;6.64;95.19
21129;BME280;10722;51.910;8.352;2023-03-14T13:00:20;98760.44;;;6.85;92.21
21129;BME280;10722;51.910;8.352;2023-03-14T13:03:26;98769.84;;;6.92;92.15
21129;BME280;10722;51.910;8.352;2023-03-14T13:12:17;98801.50;;;6.70;91.77
21129;BME280;10722;51.910;8.352;2023-03-14T13:15:12;98812.66;;;6.70;91.89
21129;BME280;10722;51.910;8.352;2023-03-14T13:18:07;98849.34;;;6.36;91.96
21129;BME280;10722;51.910;8.352;2023-03-14T13:20:58;98887.72;;;6.06;93.70
21129;BME280;10722;51.910;8.352;2023-03-14T13:24:02;98890.94;;;5.82;93.34
21129;BME280;10722;51.910;8.352;2023-03-14T13:26:48;98920.91;;;5.83;94.20
21129;BME280;10722;51.910;8.352;2023-03-14T13:29:35;98939.00;;;5.96;95.13
21129;BME280;10722;51.910;8.352;2023-03-14T13:32:26;98960.47;;;6.05;95.44
21129;BME280;10722;51.910;8.352;2023-03-14T13:35:26;98957.03;;;6.03;95.41
21129;BME280;10722;51.910;8.352;2023-03-14T13:38:18;98969.94;;;6.16;95.52
21129;BME280;10722;51.910;8.352;2023-03-14T13:41:06;98956.22;;;6.14;94.88
21129;BME280;10722;51.910;8.352;2023-03-14T13:43:58;98957.97;;;6.16;94.96
21129;BME280;10722;51.910;8.352;2023-03-14T13:46:45;98972.56;;;6.20;94.79
21129;BME280;10722;51.910;8.352;2023-03-14T13:49:33;98973.50;;;6.35;94.63
21129;BME280;10722;51.910;8.352;2023-03-14T13:55:17;98994.28;;;6.73;94.54
21129;BME280;10722;51.910;8.352;2023-03-14T13:58:02;98992.59;;;6.80;94.04
21129;BME280;10722;51.910;8.352;2023-03-14T14:01:01;98984.13;;;6.96;92.77
21129;BME280;10722;51.910;8.352;2023-03-14T14:03:52;98967.00;;;7.06;90.55
21129;BME280;10722;51.910;8.352;2023-03-14T14:06:43;98932.72;;;7.11;88.76
21129;BME280;10722;51.910;8.352;2023-03-14T14:09:36;98911.28;;;6.99;87.73
21129;BME280;10722;51.910;8.352;2023-03-14T14:18:03;98814.44;;;7.02;80.77
21129;BME280;10722;51.910;8.352;2023-03-14T14:20:49;98819.59;;;7.19;80.11
21129;BME280;10722;51.910;8.352;2023-03-14T14:23:35;98802.44;;;7.23;78.58
21129;BME280;10722;51.910;8.352;2023-03-14T14:26:21;98798.16;;;7.34;77.60
21129;BME280;10722;51.910;8.352;2023-03-14T14:29:23;98785.31;;;7.38;77.04
21129;BME280;10722;51.910;8.352;2023-03-14T14:32:13;98776.72;;;7.29;75.79
21129;BME280;10722;51.910;8.352;2023-03-14T14:35:23;98785.28;;;7.11;75.36
21129;BME280;10722;51.910;8.352;2023-03-14T14:38:12;98778.44;;;6.93;74.55
21129;BME280;10722;51.910;8.352;2023-03-14T14:41:01;98797.25;;;6.80;74.93
21129;BME280;10722;51.910;8.352;2023-03-14T14:43:47;98791.25;;;6.71;73.85
21129;BME280;10722;51.910;8.352;2023-03-14T14:46:36;98787.81;;;6.65;72.65
21129;BME280;10722;51.910;8.352;2023-03-14T14:49:28;98780.94;;;6.64;71.77
21129;BME280;10722;51.910;8.352;2023-03-14T14:52:22;98766.41;;;6.69;70.89
21129;BME280;10722;51.910;8.352;2023-03-14T14:55:19;98796.41;;;6.91;70.76
21129;BME280;10722;51.910;8.352;2023-03-14T14:58:35;98754.44;;;6.99;69.11
21129;BME280;10722;51.910;8.352;2023-03-14T15:01:25;98733.00;;;6.92;67.77
21129;BME280;10722;51.910;8.352;2023-03-14T15:04:12;98720.16;;;6.80;66.64
21129;BME280;10722;51.910;8.352;2023-03-14T15:06:58;98743.28;;;6.83;66.69
21129;BME280;10722;51.910;8.352;2023-03-14T15:09:43;98764.69;;;6.74;66.91
21129;BME280;10722;51.910;8.352;2023-03-14T15:12:28;98796.41;;;6.76;67.37
21129;BME280;10722;51.910;8.352;2023-03-14T15:15:14;98804.09;;;6.78;67.12
21129;BME280;10722;51.910;8.352;2023-03-14T15:18:00;98834.13;;;6.82;67.41
21129;BME280;10722;51.910;8.352;2023-03-14T15:20:45;98888.19;;;7.28;68.01
21129;BME280;10722;51.910;8.352;2023-03-14T15:23:30;98853.03;;;7.28;67.07
21129;BME280;10722;51.910;8.352;2023-03-14T15:26:18;98819.59;;;7.22;65.94
21129;BME280;10722;51.910;8.352;2023-03-14T15:29:05;98839.34;;;7.32;65.84
21129;BME280;10722;51.910;8.352;2023-03-14T15:31:51;98859.03;;;7.78;65.66
21129;BME280;10722;51.910;8.352;2023-03-14T15:34:36;98822.91;;;8.18;63.33
21129;BME280;10722;51.910;8.352;2023-03-14T15:37:22;98790.09;;;8.58;61.79
21129;BME280;10722;51.910;8.352;2023-03-14T15:40:11;98765.94;;;8.78;60.43
21129;BME280;10722;51.910;8.352;2023-03-14T15:42:57;98723.81;;;8.77;59.00
21129;BME280;10722;51.910;8.352;2023-03-14T15:45:42;98757.97;;;9.08;58.78
21129;BME280;10722;51.910;8.352;2023-03-14T15:48:28;98741.63;;;9.12;57.80
21129;BME280;10722;51.910;8.352;2023-03-14T15:51:14;98775.31;;;8.86;58.93
21129;BME280;10722;51.910;8.352;2023-03-14T15:53:59;98768.75;;;8.27;59.12
21129;BME280;10722;51.910;8.352;2023-03-14T15:56:44;98841.63;;;8.67;60.29
21129;BME280;10722;51.910;8.352;2023-03-14T15:59:30;98790.94;;;8.65;58.76
21129;BME280;10722;51.910;8.352;2023-03-14T16:02:15;98793.38;;;8.91;57.53